sensor_id;sensor_type;location;lat;lon;timestamp;pressure;altitude;pressure_sealevel;temperature;humidity
70256;BME280;57669;52.624;-1.688;2022-12-24T00:01:06;99803.60;;;4.94;67.58
70256;BME280;57669;52.624;-1.688;2022-12-24T00:03:31;99807.02;;;4.59;69.37
70256;BME280;57669;52.624;-1.688;2022-12-24T00:05:57;99808.00;;;4.16;70.36
70256;BME280;57669;52.624;-1.688;2022-12-24T00:08:23;99815.68;;;4.73;68.88
70256;BME280;57669;52.624;-1.688;2022-12-24T00:10:50;99818.95;;;4.66;69.11
70256;BME280;57669;52.624;-1.688;2022-12-24T00:13:14;99819.17;;;4.26;70.13
70256;BME280;57669;52.624;-1.688;2022-12-24T00:15:40;99819.12;;;4.52;69.19
70256;BME280;57669;52.624;-1.688;2022-12-24T00:18:06;99817.49;;;4.78;69.20
70256;BME280;57669;52.624;-1.688;2022-12-24T00:20:31;99813.69;;;4.20;70.88
70256;BME280;57669;52.624;-1.688;2022-12-24T00:22:56;99818.29;;;4.05;70.85
70256;BME280;57669;52.624;-1.688;2022-12-24T00:25:24;99823.20;;;4.43;69.20
70256;BME280;57669;52.624;-1.688;2022-12-24T00:27:48;99820.13;;;4.11;69.77
70256;BME280;57669;52.624;-1.688;2022-12-24T00:30:13;99817.97;;;4.85;67.42
70256;BME280;57669;52.624;-1.688;2022-12-24T00:32:38;99824.06;;;5.16;68.04
70256;BME280;57669;52.624;-1.688;2022-12-24T00:35:04;99831.71;;;4.28;69.79
70256;BME280;57669;52.624;-1.688;2022-12-24T00:37:29;99822.32;;;5.03;67.89
70256;BME280;57669;52.624;-1.688;2022-12-24T00:39:55;99819.19;;;4.34;69.44
70256;BME280;57669;52.624;-1.688;2022-12-24T00:42:21;99819.37;;;3.98;71.40
70256;BME280;57669;52.624;-1.688;2022-12-24T00:44:46;99823.73;;;4.48;69.75
70256;BME280;57669;52.624;-1.688;2022-12-24T00:47:12;99823.16;;;4.44;69.19
70256;BME280;57669;52.624;-1.688;2022-12-24T00:49:38;99827.57;;;4.45;69.22
70256;BME280;57669;52.624;-1.688;2022-12-24T00:52:04;99830.78;;;4.72;69.12
70256;BME280;57669;52.624;-1.688;2022-12-24T00:54:29;99834.79;;;5.11;69.19
70256;BME280;57669;52.624;-1.688;2022-12-24T00:56:55;99840.87;;;5.10;68.61
70256;BME280;57669;52.624;-1.688;2022-12-24T00:59:20;99839.34;;;4.79;69.46
70256;BME280;57669;52.624;-1.688;2022-12-24T01:01:45;99840.08;;;4.72;70.63
70256;BME280;57669;52.624;-1.688;2022-12-24T01:04:11;99844.99;;;4.65;70.62
70256;BME280;57669;52.624;-1.688;2022-12-24T01:06:36;99847.43;;;5.16;69.23
70256;BME280;57669;52.624;-1.688;2022-12-24T01:09:02;99848.87;;;4.02;72.25
70256;BME280;57669;52.624;-1.688;2022-12-24T01:11:27;99852.20;;;4.31;71.82
70256;BME280;57669;52.624;-1.688;2022-12-24T01:13:54;99855.68;;;4.31;71.66
70256;BME280;57669;52.624;-1.688;2022-12-24T01:16:19;99858.96;;;4.10;72.26
70256;BME280;57669;52.624;-1.688;2022-12-24T01:18:44;99861.40;;;4.61;70.40
70256;BME280;57669;52.624;-1.688;2022-12-24T01:21:09;99873.83;;;4.60;69.47
70256;BME280;57669;52.624;-1.688;2022-12-24T01:23:35;99882.67;;;4.80;69.88
70256;BME280;57669;52.624;-1.688;2022-12-24T01:26:01;99886.00;;;4.92;68.85
70256;BME280;57669;52.624;-1.688;2022-12-24T01:28:26;99891.90;;;4.68;68.75
70256;BME280;57669;52.624;-1.688;2022-12-24T01:30:51;99890.21;;;4.09;70.17
70256;BME280;57669;52.624;-1.688;2022-12-24T01:33:17;99896.81;;;4.85;68.15
70256;BME280;57669;52.624;-1.688;2022-12-24T01:35:43;99901.66;;;5.28;66.19
70256;BME280;57669;52.624;-1.688;2022-12-24T01:38:09;99897.66;;;4.98;65.98
70256;BME280;57669;52.624;-1.688;2022-12-24T01:40:33;99894.94;;;5.12;65.60
70256;BME280;57669;52.624;-1.688;2022-12-24T01:42:59;99898.79;;;5.04;65.17
70256;BME280;57669;52.624;-1.688;2022-12-24T01:45:34;99903.93;;;5.45;64.85
70256;BME280;57669;52.624;-1.688;2022-12-24T01:47:50;99902.90;;;4.09;69.24
70256;BME280;57669;52.624;-1.688;2022-12-24T01:50:16;99899.88;;;4.95;65.90
70256;BME280;57669;52.624;-1.688;2022-12-24T01:52:41;99892.45;;;5.49;64.57
70256;BME280;57669;52.624;-1.688;2022-12-24T01:55:08;99885.84;;;5.60;64.10
70256;BME280;57669;52.624;-1.688;2022-12-24T01:57:35;99889.17;;;6.02;63.01
70256;BME280;57669;52.624;-1.688;2022-12-24T02:00:00;99894.62;;;5.79;62.80
70256;BME280;57669;52.624;-1.688;2022-12-24T02:02:27;99903.94;;;5.69;63.67
70256;BME280;57669;52.624;-1.688;2022-12-24T02:04:52;99909.62;;;5.23;64.37
70256;BME280;57669;52.624;-1.688;2022-12-24T02:07:13;99911.53;;;5.56;63.76
70256;BME280;57669;52.624;-1.688;2022-12-24T02:09:38;99917.00;;;5.14;64.72
70256;BME280;57669;52.624;-1.688;2022-12-24T02:12:05;99915.61;;;5.27;64.63
70256;BME280;57669;52.624;-1.688;2022-12-24T02:14:29;99918.45;;;5.76;63.40
70256;BME280;57669;52.624;-1.688;2022-12-24T02:17:01;99922.53;;;5.33;64.02
70256;BME280;57669;52.624;-1.688;2022-12-24T02:21:53;99915.58;;;4.76;65.27
70256;BME280;57669;52.624;-1.688;2022-12-24T02:24:25;99923.59;;;5.33;64.12
70256;BME280;57669;52.624;-1.688;2022-12-24T02:26:52;99927.82;;;5.36;64.07
70256;BME280;57669;52.624;-1.688;2022-12-24T02:29:16;99927.50;;;4.47;66.05
70256;BME280;57669;52.624;-1.688;2022-12-24T02:31:35;99929.31;;;5.23;64.45
70256;BME280;57669;52.624;-1.688;2022-12-24T02:33:59;99923.64;;;5.32;64.01
70256;BME280;57669;52.624;-1.688;2022-12-24T02:36:24;99922.28;;;5.29;63.98
70256;BME280;57669;52.624;-1.688;2022-12-24T02:38:50;99918.10;;;5.38;63.58
70256;BME280;57669;52.624;-1.688;2022-12-24T02:41:17;99921.81;;;5.29;63.72
70256;BME280;57669;52.624;-1.688;2022-12-24T02:43:40;99923.35;;;5.12;64.03
70256;BME280;57669;52.624;-1.688;2022-12-24T02:46:07;99925.14;;;5.12;63.91
70256;BME280;57669;52.624;-1.688;2022-12-24T02:48:30;99929.16;;;4.68;66.41
70256;BME280;57669;52.624;-1.688;2022-12-24T02:50:55;99928.87;;;4.45;67.01
70256;BME280;57669;52.624;-1.688;2022-12-24T02:53:19;99934.57;;;3.95;68.17
70256;BME280;57669;52.624;-1.688;2022-12-24T02:55:51;99933.76;;;4.75;66.41
70256;BME280;57669;52.624;-1.688;2022-12-24T02:58:22;99937.60;;;4.88;66.08
70256;BME280;57669;52.624;-1.688;2022-12-24T03:00:46;99939.82;;;4.82;67.41
70256;BME280;57669;52.624;-1.688;2022-12-24T03:03:14;99934.35;;;4.87;65.67
70256;BME280;57669;52.624;-1.688;2022-12-24T03:05:30;99934.16;;;4.95;65.72
70256;BME280;57669;52.624;-1.688;2022-12-24T03:07:57;99932.83;;;4.88;64.77
70256;BME280;57669;52.624;-1.688;2022-12-24T03:10:20;99937.29;;;5.40;64.15
70256;BME280;57669;52.624;-1.688;2022-12-24T03:12:44;99948.38;;;5.34;64.71
70256;BME280;57669;52.624;-1.688;2022-12-24T03:15:10;99955.46;;;5.25;63.01
70256;BME280;57669;52.624;-1.688;2022-12-24T03:17:36;99952.28;;;5.39;63.26
70256;BME280;57669;52.624;-1.688;2022-12-24T03:19:58;99956.26;;;5.64;62.82
70256;BME280;57669;52.624;-1.688;2022-12-24T03:22:24;99950.72;;;5.72;62.58
70256;BME280;57669;52.624;-1.688;2022-12-24T03:24:50;99953.07;;;5.56;62.93
70256;BME280;57669;52.624;-1.688;2022-12-24T03:27:16;99953.09;;;5.15;64.39
70256;BME280;57669;52.624;-1.688;2022-12-24T03:29:41;99952.42;;;5.22;63.74
70256;BME280;57669;52.624;-1.688;2022-12-24T03:32:07;99956.52;;;5.16;63.91
70256;BME280;57669;52.624;-1.688;2022-12-24T03:34:32;99958.17;;;5.61;64.29
70256;BME280;57669;52.624;-1.688;2022-12-24T03:36:57;99960.69;;;5.37;64.14
70256;BME280;57669;52.624;-1.688;2022-12-24T03:39:23;99970.92;;;5.09;64.20
70256;BME280;57669;52.624;-1.688;2022-12-24T03:41:48;99974.80;;;5.25;65.30
70256;BME280;57669;52.624;-1.688;2022-12-24T03:44:14;99979.64;;;5.24;63.93
70256;BME280;57669;52.624;-1.688;2022-12-24T03:46:40;99978.96;;;5.49;63.83
70256;BME280;57669;52.624;-1.688;2022-12-24T03:49:06;99984.42;;;5.37;62.92
70256;BME280;57669;52.624;-1.688;2022-12-24T03:51:31;99990.48;;;5.51;61.59
70256;BME280;57669;52.624;-1.688;2022-12-24T03:53:58;99991.61;;;5.82;60.71
70256;BME280;57669;52.624;-1.688;2022-12-24T03:56:23;99990.90;;;5.80;61.25
70256;BME280;57669;52.624;-1.688;2022-12-24T03:58:49;99990.65;;;5.91;60.64
70256;BME280;57669;52.624;-1.688;2022-12-24T04:01:15;100003.37;;;6.03;60.65
70256;BME280;57669;52.624;-1.688;2022-12-24T04:03:40;100011.87;;;5.86;60.44
70256;BME280;57669;52.624;-1.688;2022-12-24T04:06:08;100013.30;;;5.61;60.87
70256;BME280;57669;52.624;-1.688;2022-12-24T04:08:32;100010.12;;;5.62;60.90
70256;BME280;57669;52.624;-1.688;2022-12-24T04:10:57;100007.39;;;6.16;59.51
70256;BME280;57669;52.624;-1.688;2022-12-24T04:13:23;100018.61;;;5.96;58.62
70256;BME280;57669;52.624;-1.688;2022-12-24T04:15:56;100022.42;;;5.77;60.36
70256;BME280;57669;52.624;-1.688;2022-12-24T04:18:13;100033.79;;;6.08;58.76
70256;BME280;57669;52.624;-1.688;2022-12-24T04:20:38;100036.27;;;5.91;58.89
70256;BME280;57669;52.624;-1.688;2022-12-24T04:23:04;100037.02;;;6.01;58.65
70256;BME280;57669;52.624;-1.688;2022-12-24T04:25:30;100042.98;;;5.88;59.24
70256;BME280;57669;52.624;-1.688;2022-12-24T04:27:55;100043.17;;;5.96;59.47
70256;BME280;57669;52.624;-1.688;2022-12-24T04:30:21;100048.42;;;5.40;60.87
70256;BME280;57669;52.624;-1.688;2022-12-24T04:32:47;100054.42;;;5.67;60.25
70256;BME280;57669;52.624;-1.688;2022-12-24T04:35:13;100055.43;;;5.26;61.27
70256;BME280;57669;52.624;-1.688;2022-12-24T04:37:38;100059.61;;;5.37;60.61
70256;BME280;57669;52.624;-1.688;2022-12-24T04:40:04;100061.97;;;5.23;61.03
70256;BME280;57669;52.624;-1.688;2022-12-24T04:42:29;100059.09;;;5.48;60.36
70256;BME280;57669;52.624;-1.688;2022-12-24T04:44:54;100058.01;;;6.00;59.58
70256;BME280;57669;52.624;-1.688;2022-12-24T04:47:20;100060.81;;;5.26;61.24
70256;BME280;57669;52.624;-1.688;2022-12-24T04:49:45;100058.55;;;5.04;61.68
70256;BME280;57669;52.624;-1.688;2022-12-24T04:52:10;100064.49;;;5.02;62.27
70256;BME280;57669;52.624;-1.688;2022-12-24T04:54:36;100062.46;;;5.49;61.25
70256;BME280;57669;52.624;-1.688;2022-12-24T04:57:05;100061.58;;;5.18;62.08
70256;BME280;57669;52.624;-1.688;2022-12-24T04:59:27;100060.55;;;5.31;62.43
70256;BME280;57669;52.624;-1.688;2022-12-24T05:01:53;100065.42;;;5.25;60.92
70256;BME280;57669;52.624;-1.688;2022-12-24T05:04:18;100066.82;;;5.23;61.41
70256;BME280;57669;52.624;-1.688;2022-12-24T05:06:43;100070.08;;;5.43;60.97
70256;BME280;57669;52.624;-1.688;2022-12-24T05:09:09;100072.87;;;4.49;63.47
70256;BME280;57669;52.624;-1.688;2022-12-24T05:11:35;100071.23;;;4.58;63.55
70256;BME280;57669;52.624;-1.688;2022-12-24T05:14:00;100074.37;;;5.05;62.10
70256;BME280;57669;52.624;-1.688;2022-12-24T05:16:26;100077.94;;;4.25;64.34
70256;BME280;57669;52.624;-1.688;2022-12-24T05:18:51;100080.38;;;4.97;62.68
70256;BME280;57669;52.624;-1.688;2022-12-24T05:21:19;100085.65;;;5.20;61.50
70256;BME280;57669;52.624;-1.688;2022-12-24T05:26:15;100088.69;;;4.98;61.78
70256;BME280;57669;52.624;-1.688;2022-12-24T05:28:33;100094.90;;;5.07;61.58
70256;BME280;57669;52.624;-1.688;2022-12-24T05:30:59;100102.58;;;5.24;61.00
70256;BME280;57669;52.624;-1.688;2022-12-24T05:33:24;100113.55;;;5.05;60.78
70256;BME280;57669;52.624;-1.688;2022-12-24T05:35:50;100114.35;;;5.20;60.43
70256;BME280;57669;52.624;-1.688;2022-12-24T05:38:14;100115.96;;;5.25;60.58
70256;BME280;57669;52.624;-1.688;2022-12-24T05:40:40;100119.76;;;4.62;61.88
70256;BME280;57669;52.624;-1.688;2022-12-24T05:43:05;100121.25;;;4.74;61.54
70256;BME280;57669;52.624;-1.688;2022-12-24T05:45:31;100125.81;;;4.27;62.70
70256;BME280;57669;52.624;-1.688;2022-12-24T05:47:56;100132.52;;;4.24;62.81
70256;BME280;57669;52.624;-1.688;2022-12-24T05:50:22;100133.43;;;5.31;61.69
70256;BME280;57669;52.624;-1.688;2022-12-24T05:52:47;100135.53;;;4.60;62.02
70256;BME280;57669;52.624;-1.688;2022-12-24T05:55:13;100128.68;;;5.18;61.97
70256;BME280;57669;52.624;-1.688;2022-12-24T05:57:39;100125.58;;;4.74;63.04
70256;BME280;57669;52.624;-1.688;2022-12-24T06:00:05;100132.63;;;4.54;63.50
70256;BME280;57669;52.624;-1.688;2022-12-24T06:02:29;100137.07;;;4.61;63.53
70256;BME280;57669;52.624;-1.688;2022-12-24T06:04:54;100135.62;;;4.20;66.09
70256;BME280;57669;52.624;-1.688;2022-12-24T06:07:20;100136.25;;;3.87;65.48
70256;BME280;57669;52.624;-1.688;2022-12-24T06:09:46;100133.00;;;4.21;65.04
70256;BME280;57669;52.624;-1.688;2022-12-24T06:12:12;100136.78;;;4.22;64.72
70256;BME280;57669;52.624;-1.688;2022-12-24T06:14:37;100138.74;;;4.43;64.29
70256;BME280;57669;52.624;-1.688;2022-12-24T06:17:02;100142.31;;;4.23;64.90
70256;BME280;57669;52.624;-1.688;2022-12-24T06:19:27;100146.11;;;4.15;65.61
70256;BME280;57669;52.624;-1.688;2022-12-24T06:21:53;100151.24;;;4.19;65.12
70256;BME280;57669;52.624;-1.688;2022-12-24T06:24:18;100154.28;;;4.52;64.88
70256;BME280;57669;52.624;-1.688;2022-12-24T06:26:44;100160.76;;;4.24;63.79
70256;BME280;57669;52.624;-1.688;2022-12-24T06:29:10;100167.18;;;4.72;63.67
70256;BME280;57669;52.624;-1.688;2022-12-24T06:31:36;100167.77;;;4.60;63.86
70256;BME280;57669;52.624;-1.688;2022-12-24T06:34:01;100173.90;;;4.29;64.73
70256;BME280;57669;52.624;-1.688;2022-12-24T06:36:27;100175.66;;;4.85;62.69
70256;BME280;57669;52.624;-1.688;2022-12-24T06:38:53;100174.28;;;5.21;62.15
70256;BME280;57669;52.624;-1.688;2022-12-24T06:41:18;100176.85;;;4.67;62.66
70256;BME280;57669;52.624;-1.688;2022-12-24T06:43:58;100177.94;;;4.63;62.74
70256;BME280;57669;52.624;-1.688;2022-12-24T06:48:34;100187.66;;;5.08;60.88
70256;BME280;57669;52.624;-1.688;2022-12-24T06:51:01;100193.37;;;4.69;62.11
70256;BME280;57669;52.624;-1.688;2022-12-24T06:53:25;100191.70;;;5.30;60.95
70256;BME280;57669;52.624;-1.688;2022-12-24T06:55:50;100197.72;;;4.46;62.39
70256;BME280;57669;52.624;-1.688;2022-12-24T06:58:16;100193.73;;;4.23;63.05
70256;BME280;57669;52.624;-1.688;2022-12-24T07:00:41;100198.97;;;4.52;62.24
70256;BME280;57669;52.624;-1.688;2022-12-24T07:03:06;100197.43;;;4.89;60.91
70256;BME280;57669;52.624;-1.688;2022-12-24T07:05:32;100199.65;;;4.88;61.42
70256;BME280;57669;52.624;-1.688;2022-12-24T07:07:57;100197.64;;;4.79;61.76
70256;BME280;57669;52.624;-1.688;2022-12-24T07:10:23;100200.75;;;4.58;62.37
70256;BME280;57669;52.624;-1.688;2022-12-24T07:12:48;100201.26;;;4.45;61.83
70256;BME280;57669;52.624;-1.688;2022-12-24T07:15:14;100200.98;;;4.56;61.76
70256;BME280;57669;52.624;-1.688;2022-12-24T07:17:39;100199.54;;;4.99;61.46
70256;BME280;57669;52.624;-1.688;2022-12-24T07:20:09;100208.81;;;4.35;62.75
70256;BME280;57669;52.624;-1.688;2022-12-24T07:22:30;100209.92;;;4.79;61.31
70256;BME280;57669;52.624;-1.688;2022-12-24T07:24:56;100213.39;;;4.50;62.83
70256;BME280;57669;52.624;-1.688;2022-12-24T07:27:21;100207.63;;;5.29;60.75
70256;BME280;57669;52.624;-1.688;2022-12-24T07:29:47;100217.06;;;4.39;62.44
70256;BME280;57669;52.624;-1.688;2022-12-24T07:32:12;100215.00;;;4.45;62.67
70256;BME280;57669;52.624;-1.688;2022-12-24T07:34:38;100207.19;;;4.90;61.49
70256;BME280;57669;52.624;-1.688;2022-12-24T07:37:03;100197.38;;;4.76;60.77
70256;BME280;57669;52.624;-1.688;2022-12-24T07:41:54;100198.46;;;4.85;59.13
70256;BME280;57669;52.624;-1.688;2022-12-24T07:44:20;100199.80;;;5.29;58.46
70256;BME280;57669;52.624;-1.688;2022-12-24T07:46:45;100195.16;;;4.74;60.18
70256;BME280;57669;52.624;-1.688;2022-12-24T07:49:11;100205.45;;;4.63;61.47
70256;BME280;57669;52.624;-1.688;2022-12-24T07:51:37;100204.29;;;4.18;64.18
70256;BME280;57669;52.624;-1.688;2022-12-24T07:54:02;100201.33;;;3.51;65.94
70256;BME280;57669;52.624;-1.688;2022-12-24T07:56:27;100204.90;;;3.37;68.03
70256;BME280;57669;52.624;-1.688;2022-12-24T07:58:53;100204.74;;;3.97;66.72
70256;BME280;57669;52.624;-1.688;2022-12-24T08:01:19;100212.20;;;4.31;64.85
70256;BME280;57669;52.624;-1.688;2022-12-24T08:03:44;100208.76;;;3.91;66.35
70256;BME280;57669;52.624;-1.688;2022-12-24T08:06:10;100205.32;;;3.52;66.14
70256;BME280;57669;52.624;-1.688;2022-12-24T08:08:36;100214.02;;;4.15;65.50
70256;BME280;57669;52.624;-1.688;2022-12-24T08:11:02;100220.50;;;3.77;66.67
70256;BME280;57669;52.624;-1.688;2022-12-24T08:13:27;100229.41;;;4.11;64.64
70256;BME280;57669;52.624;-1.688;2022-12-24T08:15:53;100226.48;;;4.15;65.18
70256;BME280;57669;52.624;-1.688;2022-12-24T08:18:18;100229.82;;;4.34;64.24
70256;BME280;57669;52.624;-1.688;2022-12-24T08:20:43;100230.57;;;3.76;65.64
70256;BME280;57669;52.624;-1.688;2022-12-24T08:23:09;100236.89;;;3.98;64.77
70256;BME280;57669;52.624;-1.688;2022-12-24T08:25:35;100243.15;;;4.01;65.40
70256;BME280;57669;52.624;-1.688;2022-12-24T08:28:01;100254.37;;;3.54;66.92
70256;BME280;57669;52.624;-1.688;2022-12-24T08:30:26;100259.76;;;3.97;65.79
70256;BME280;57669;52.624;-1.688;2022-12-24T08:32:51;100263.22;;;4.05;65.04
70256;BME280;57669;52.624;-1.688;2022-12-24T08:35:17;100268.25;;;3.41;66.85
70256;BME280;57669;52.624;-1.688;2022-12-24T08:37:43;100270.11;;;4.02;63.60
70256;BME280;57669;52.624;-1.688;2022-12-24T08:40:09;100269.82;;;3.66;66.12
70256;BME280;57669;52.624;-1.688;2022-12-24T08:42:33;100268.38;;;3.57;65.75
70256;BME280;57669;52.624;-1.688;2022-12-24T08:44:59;100277.63;;;3.32;66.66
70256;BME280;57669;52.624;-1.688;2022-12-24T08:47:25;100274.99;;;3.83;65.85
70256;BME280;57669;52.624;-1.688;2022-12-24T08:49:50;100273.57;;;3.61;66.28
70256;BME280;57669;52.624;-1.688;2022-12-24T08:54:42;100272.52;;;3.66;66.36
70256;BME280;57669;52.624;-1.688;2022-12-24T08:57:08;100275.34;;;3.20;67.01
70256;BME280;57669;52.624;-1.688;2022-12-24T08:59:33;100279.20;;;3.67;65.77
70256;BME280;57669;52.624;-1.688;2022-12-24T09:01:58;100270.90;;;3.81;65.34
70256;BME280;57669;52.624;-1.688;2022-12-24T09:04:23;100274.11;;;3.17;66.97
70256;BME280;57669;52.624;-1.688;2022-12-24T09:06:48;100270.52;;;3.41;67.15
70256;BME280;57669;52.624;-1.688;2022-12-24T09:09:13;100268.43;;;3.69;66.44
70256;BME280;57669;52.624;-1.688;2022-12-24T09:11:39;100277.56;;;4.74;64.41
70256;BME280;57669;52.624;-1.688;2022-12-24T09:14:05;100284.08;;;4.35;65.12
70256;BME280;57669;52.624;-1.688;2022-12-24T09:16:30;100282.30;;;3.84;66.31
70256;BME280;57669;52.624;-1.688;2022-12-24T09:18:57;100277.47;;;3.86;65.85
70256;BME280;57669;52.624;-1.688;2022-12-24T09:21:22;100279.69;;;3.68;65.88
70256;BME280;57669;52.624;-1.688;2022-12-24T09:23:48;100283.42;;;4.34;64.06
70256;BME280;57669;52.624;-1.688;2022-12-24T09:26:15;100287.70;;;4.02;64.75
70256;BME280;57669;52.624;-1.688;2022-12-24T09:28:38;100292.58;;;4.39;64.31
70256;BME280;57669;52.624;-1.688;2022-12-24T09:31:04;100292.71;;;4.77;63.02
70256;BME280;57669;52.624;-1.688;2022-12-24T09:33:31;100291.56;;;5.12;62.14
70256;BME280;57669;52.624;-1.688;2022-12-24T09:35:55;100298.27;;;4.70;62.08
70256;BME280;57669;52.624;-1.688;2022-12-24T09:38:21;100305.59;;;4.30;63.04
70256;BME280;57669;52.624;-1.688;2022-12-24T09:40:46;100307.85;;;4.42;63.52
70256;BME280;57669;52.624;-1.688;2022-12-24T09:43:14;100309.93;;;4.78;63.41
70256;BME280;57669;52.624;-1.688;2022-12-24T09:45:40;100309.75;;;5.64;61.01
70256;BME280;57669;52.624;-1.688;2022-12-24T09:48:07;100313.82;;;4.92;61.47
70256;BME280;57669;52.624;-1.688;2022-12-24T09:50:33;100315.19;;;4.75;63.71
70256;BME280;57669;52.624;-1.688;2022-12-24T09:52:54;100313.63;;;4.59;63.43
70256;BME280;57669;52.624;-1.688;2022-12-24T09:55:24;100313.07;;;4.81;63.58
70256;BME280;57669;52.624;-1.688;2022-12-24T09:57:44;100312.13;;;4.63;64.29
70256;BME280;57669;52.624;-1.688;2022-12-24T10:00:18;100316.52;;;4.02;65.56
70256;BME280;57669;52.624;-1.688;2022-12-24T10:02:35;100318.65;;;4.47;64.51
70256;BME280;57669;52.624;-1.688;2022-12-24T10:05:00;100325.18;;;4.55;64.42
70256;BME280;57669;52.624;-1.688;2022-12-24T10:07:32;100329.15;;;4.65;64.46
70256;BME280;57669;52.624;-1.688;2022-12-24T10:09:58;100328.07;;;4.28;64.82
70256;BME280;57669;52.624;-1.688;2022-12-24T10:12:21;100332.26;;;4.76;64.86
70256;BME280;57669;52.624;-1.688;2022-12-24T10:14:51;100335.37;;;4.51;65.70
70256;BME280;57669;52.624;-1.688;2022-12-24T10:17:17;100334.79;;;4.25;65.40
70256;BME280;57669;52.624;-1.688;2022-12-24T10:19:40;100331.89;;;3.98;66.61
70256;BME280;57669;52.624;-1.688;2022-12-24T10:22:04;100335.68;;;4.94;64.11
70256;BME280;57669;52.624;-1.688;2022-12-24T10:24:27;100333.77;;;4.85;64.67
70256;BME280;57669;52.624;-1.688;2022-12-24T10:26:52;100337.40;;;4.35;65.48
70256;BME280;57669;52.624;-1.688;2022-12-24T10:29:17;100340.90;;;4.53;65.28
70256;BME280;57669;52.624;-1.688;2022-12-24T10:31:44;100341.17;;;5.51;63.23
70256;BME280;57669;52.624;-1.688;2022-12-24T10:34:11;100337.69;;;5.41;63.36
70256;BME280;57669;52.624;-1.688;2022-12-24T10:36:31;100341.72;;;5.06;63.83
70256;BME280;57669;52.624;-1.688;2022-12-24T10:38:56;100339.71;;;5.03;64.68
70256;BME280;57669;52.624;-1.688;2022-12-24T10:41:22;100339.59;;;5.65;63.99
70256;BME280;57669;52.624;-1.688;2022-12-24T10:43:47;100335.99;;;5.25;64.93
70256;BME280;57669;52.624;-1.688;2022-12-24T10:46:17;100334.93;;;5.09;66.09
70256;BME280;57669;52.624;-1.688;2022-12-24T10:48:41;100335.70;;;5.26;67.92
70256;BME280;57669;52.624;-1.688;2022-12-24T10:51:05;100331.01;;;4.45;68.82
70256;BME280;57669;52.624;-1.688;2022-12-24T10:53:37;100334.73;;;4.78;67.42
70256;BME280;57669;52.624;-1.688;2022-12-24T10:56:01;100331.82;;;4.74;68.58
70256;BME280;57669;52.624;-1.688;2022-12-24T10:58:20;100330.80;;;4.44;69.31
70256;BME280;57669;52.624;-1.688;2022-12-24T11:00:49;100335.16;;;4.25;70.63
70256;BME280;57669;52.624;-1.688;2022-12-24T11:05:37;100329.46;;;5.21;68.35
70256;BME280;57669;52.624;-1.688;2022-12-24T11:08:02;100321.18;;;5.08;68.55
70256;BME280;57669;52.624;-1.688;2022-12-24T11:10:26;100315.19;;;4.91;69.60
70256;BME280;57669;52.624;-1.688;2022-12-24T11:12:52;100313.85;;;4.84;69.35
70256;BME280;57669;52.624;-1.688;2022-12-24T11:15:21;100310.66;;;5.29;68.37
70256;BME280;57669;52.624;-1.688;2022-12-24T11:17:51;100315.58;;;5.09;68.78
70256;BME280;57669;52.624;-1.688;2022-12-24T11:20:15;100320.41;;;5.75;67.97
70256;BME280;57669;52.624;-1.688;2022-12-24T11:25:05;100322.81;;;5.56;67.81
70256;BME280;57669;52.624;-1.688;2022-12-24T11:27:31;100318.61;;;5.88;67.28
70256;BME280;57669;52.624;-1.688;2022-12-24T11:29:50;100309.34;;;6.05;65.81
70256;BME280;57669;52.624;-1.688;2022-12-24T11:32:17;100307.53;;;6.59;64.55
70256;BME280;57669;52.624;-1.688;2022-12-24T11:34:42;100304.81;;;6.39;64.98
70256;BME280;57669;52.624;-1.688;2022-12-24T11:37:12;100311.01;;;5.56;66.69
70256;BME280;57669;52.624;-1.688;2022-12-24T11:39:37;100309.09;;;6.21;65.37
70256;BME280;57669;52.624;-1.688;2022-12-24T11:41:57;100318.02;;;5.42;66.91
70256;BME280;57669;52.624;-1.688;2022-12-24T11:44:25;100313.97;;;5.40;68.19
70256;BME280;57669;52.624;-1.688;2022-12-24T11:46:47;100320.14;;;5.76;67.00
70256;BME280;57669;52.624;-1.688;2022-12-24T11:49:23;100323.78;;;5.81;67.25
70256;BME280;57669;52.624;-1.688;2022-12-24T11:51:40;100323.47;;;5.10;68.57
70256;BME280;57669;52.624;-1.688;2022-12-24T11:54:12;100323.98;;;5.74;66.53
70256;BME280;57669;52.624;-1.688;2022-12-24T11:56:35;100316.47;;;5.82;66.33
70256;BME280;57669;52.624;-1.688;2022-12-24T11:58:57;100320.76;;;5.59;66.66
70256;BME280;57669;52.624;-1.688;2022-12-24T12:01:23;100319.74;;;5.67;67.19
70256;BME280;57669;52.624;-1.688;2022-12-24T12:03:47;100319.32;;;5.24;67.85
70256;BME280;57669;52.624;-1.688;2022-12-24T12:08:37;100317.47;;;5.79;66.20
70256;BME280;57669;52.624;-1.688;2022-12-24T12:11:03;100314.19;;;6.52;64.68
70256;BME280;57669;52.624;-1.688;2022-12-24T12:13:30;100323.17;;;5.63;65.87
70256;BME280;57669;52.624;-1.688;2022-12-24T12:16:03;100319.38;;;5.90;65.89
70256;BME280;57669;52.624;-1.688;2022-12-24T12:18:21;100316.24;;;5.85;67.25
70256;BME280;57669;52.624;-1.688;2022-12-24T12:20:47;100322.96;;;5.98;67.10
70256;BME280;57669;52.624;-1.688;2022-12-24T12:28:04;100317.07;;;5.34;68.34
70256;BME280;57669;52.624;-1.688;2022-12-24T12:30:28;100319.72;;;5.77;66.68
70256;BME280;57669;52.624;-1.688;2022-12-24T12:32:57;100319.26;;;6.29;65.62
70256;BME280;57669;52.624;-1.688;2022-12-24T12:35:23;100316.16;;;7.14;63.85
70256;BME280;57669;52.624;-1.688;2022-12-24T12:37:47;100317.31;;;6.76;62.88
70256;BME280;57669;52.624;-1.688;2022-12-24T12:40:12;100310.42;;;7.30;61.19
70256;BME280;57669;52.624;-1.688;2022-12-24T12:42:36;100309.59;;;6.71;63.00
70256;BME280;57669;52.624;-1.688;2022-12-24T12:47:37;100323.14;;;7.30;61.58
70256;BME280;57669;52.624;-1.688;2022-12-24T12:49:57;100320.11;;;6.89;63.29
70256;BME280;57669;52.624;-1.688;2022-12-24T12:52:22;100322.83;;;6.77;63.33
70256;BME280;57669;52.624;-1.688;2022-12-24T12:54:51;100325.80;;;7.46;61.73
70256;BME280;57669;52.624;-1.688;2022-12-24T12:57:11;100325.76;;;6.85;62.86
70256;BME280;57669;52.624;-1.688;2022-12-24T12:59:35;100325.36;;;6.36;65.05
70256;BME280;57669;52.624;-1.688;2022-12-24T13:02:02;100319.18;;;6.33;65.81
70256;BME280;57669;52.624;-1.688;2022-12-24T13:07:00;100325.15;;;6.30;65.42
70256;BME280;57669;52.624;-1.688;2022-12-24T13:11:50;100325.83;;;6.50;66.91
70256;BME280;57669;52.624;-1.688;2022-12-24T13:14:18;100328.70;;;6.27;66.30